Terminal Aerodrome Forecast
Issued by NWS

Home | Current Version | Previous Version | Graphics & Text | Print | Product List | Glossary On
Versions: 1 2 3 4 5 6 7 8 9 10 11 12 13 14 15 16 17 18 19 20 21 22 23 24
000
FTUS43 KABR 011729
TAFATY
TAF
KATY 011729Z 0118/0218 VRB06KT P6SM BKN035
     FM012300 11006KT P6SM VCTS BKN040CB
     FM020900 14003KT 3SM BR VCSH OVC015=

USA.gov is the U.S. government's official web portal to all federal, state and local government web resources and services.